Time;durP1;ratioP1;P1;durP2;ratioP2;P2;SDS_P1;SDS_P2;PMS_P1;PMS_P2;Temp;Humidity;BMP_temperature;BMP_pressure;BME280_temperature;BME280_humidity;BME280_pressure;Samples;Min_cycle;Max_cycle;Signal;HPM_P1;HPM_P2
2023/11/27 00:01:50;;;;;;;7.10;3.10;;;;;;;0.06;100.00;96988.13;5038656;28;20659;-64
2023/11/27 00:04:16;;;;;;;7.30;2.75;;;;;;;0.05;100.00;96985.66;5039413;28;20565;-65
2023/11/27 00:06:43;;;;;;;5.72;3.17;;;;;;;-0.03;100.00;96989.28;5052775;28;20107;-65
2023/11/27 00:09:10;;;;;;;5.85;3.00;;;;;;;-0.22;100.00;96980.16;5043556;28;20037;-65
2023/11/27 00:11:38;;;;;;;5.57;2.80;;;;;;;-0.15;100.00;96979.16;5036406;28;20052;-65
2023/11/27 00:14:08;;;;;;;6.05;2.83;;;;;;;-0.20;100.00;96981.59;5036035;28;20043;-65
2023/11/27 00:16:35;;;;;;;5.63;2.95;;;;;;;-0.24;100.00;96977.66;5033608;28;20113;-64
2023/11/27 00:19:01;;;;;;;4.28;2.60;;;;;;;-0.22;100.00;96974.81;5038745;28;20037;-65
2023/11/27 00:21:28;;;;;;;3.83;2.35;;;;;;;-0.15;100.00;96970.34;5042504;28;20048;-65
2023/11/27 00:23:55;;;;;;;5.70;3.05;;;;;;;-0.04;100.00;96963.69;5029416;28;20128;-65
2023/11/27 00:26:21;;;;;;;6.43;3.08;;;;;;;-0.06;100.00;96958.56;5038658;28;20044;-65
2023/11/27 00:28:53;;;;;;;3.88;2.50;;;;;;;-0.13;100.00;96947.03;5044667;28;20049;-65
2023/11/27 00:31:20;;;;;;;5.45;2.95;;;;;;;-0.03;100.00;96947.50;5049819;28;20044;-65
2023/11/27 00:33:47;;;;;;;5.72;2.75;;;;;;;-0.05;100.00;96938.91;5043900;28;20509;-64
2023/11/27 00:36:14;;;;;;;4.88;2.53;;;;;;;-0.04;100.00;96935.22;5039580;28;20041;-65
2023/11/27 00:38:41;;;;;;;6.03;2.95;;;;;;;-0.04;100.00;96929.91;5035300;28;20071;-65
2023/11/27 00:41:07;;;;;;;5.47;3.03;;;;;;;0.09;100.00;96934.50;5051052;28;20068;-65
2023/11/27 00:43:34;;;;;;;5.18;2.95;;;;;;;0.11;100.00;96924.47;5046457;28;20044;-65
2023/11/27 00:46:01;;;;;;;6.00;2.95;;;;;;;0.25;100.00;96930.69;5048929;28;20044;-65
2023/11/27 00:48:27;;;;;;;7.00;2.53;;;;;;;0.09;100.00;96913.22;5037377;28;20510;-65
2023/11/27 00:50:54;;;;;;;5.18;2.63;;;;;;;0.05;100.00;96911.94;5044586;28;20064;-65
2023/11/27 00:53:20;;;;;;;5.53;2.95;;;;;;;0.15;100.00;96903.63;5035536;28;20558;-65
2023/11/27 00:55:47;;;;;;;5.50;2.42;;;;;;;0.05;100.00;96898.66;5042084;28;20041;-65
2023/11/27 00:58:14;;;;;;;5.10;2.97;;;;;;;-0.03;100.00;96894.28;5041568;28;20755;-65
2023/11/27 01:00:41;;;;;;;5.10;3.00;;;;;;;-0.03;100.00;96888.16;5037282;28;20477;-65
2023/11/27 01:03:08;;;;;;;6.28;3.13;;;;;;;-0.01;100.00;96891.44;5034712;28;20124;-65
2023/11/27 01:05:35;;;;;;;5.25;3.22;;;;;;;-0.12;100.00;96892.78;5038607;28;20051;-65
2023/11/27 01:08:02;;;;;;;8.35;3.33;;;;;;;-0.09;100.00;96892.41;5039229;28;20045;-65
2023/11/27 01:10:29;;;;;;;5.32;3.05;;;;;;;-0.05;100.00;96885.69;5031287;28;20065;-65
2023/11/27 01:12:56;;;;;;;6.35;3.05;;;;;;;-0.03;100.00;96885.50;5031909;28;20042;-65
2023/11/27 01:15:22;;;;;;;6.05;3.08;;;;;;;-0.18;100.00;96874.97;5029018;28;20053;-65
2023/11/27 01:17:49;;;;;;;5.50;2.88;;;;;;;-0.30;100.00;96869.34;5041328;28;20041;-65
2023/11/27 01:20:16;;;;;;;5.53;2.85;;;;;;;-0.26;100.00;96867.94;5047291;28;20041;-65
2023/11/27 01:22:44;;;;;;;6.50;3.63;;;;;;;-0.22;100.00;96858.53;5039704;28;20033;-65
2023/11/27 01:25:11;;;;;;;7.10;3.47;;;;;;;-0.11;100.00;96861.69;5037028;28;20037;-65
2023/11/27 01:27:38;;;;;;;8.98;4.22;;;;;;;-0.11;100.00;96853.72;5039508;28;20037;-64
2023/11/27 01:30:05;;;;;;;5.65;2.90;;;;;;;-0.17;100.00;96853.47;5026244;28;20037;-65
2023/11/27 01:32:32;;;;;;;6.35;3.80;;;;;;;-0.07;100.00;96852.28;5047751;28;20054;-65
2023/11/27 01:34:59;;;;;;;5.97;3.72;;;;;;;0.01;100.00;96849.47;5032001;28;20519;-64
2023/11/27 01:37:25;;;;;;;6.30;3.70;;;;;;;0.00;100.00;96839.84;5035365;28;20693;-65
2023/11/27 01:39:52;;;;;;;6.38;3.65;;;;;;;-0.07;100.00;96837.13;5042532;28;20037;-65
2023/11/27 01:42:18;;;;;;;8.38;3.85;;;;;;;-0.10;100.00;96826.91;5036097;28;20115;-64
2023/11/27 01:44:45;;;;;;;6.18;3.75;;;;;;;-0.01;100.00;96823.06;5042695;28;20043;-65
2023/11/27 01:47:12;;;;;;;9.00;4.85;;;;;;;0.16;100.00;96819.22;5045398;28;20083;-65
2023/11/27 01:49:40;;;;;;;7.32;3.55;;;;;;;0.33;100.00;96814.38;5048731;28;20064;-65
2023/11/27 01:52:07;;;;;;;5.88;3.55;;;;;;;0.23;100.00;96812.88;5044946;28;20124;-65
2023/11/27 01:54:36;;;;;;;6.70;3.80;;;;;;;0.31;100.00;96811.91;5041704;28;20400;-65
2023/11/27 01:57:04;;;;;;;6.07;3.85;;;;;;;0.43;100.00;96809.47;5030207;28;20069;-65
2023/11/27 01:59:31;;;;;;;7.15;4.13;;;;;;;0.50;100.00;96806.84;5027567;28;20045;-65
2023/11/27 02:01:58;;;;;;;7.63;4.30;;;;;;;0.61;100.00;96805.41;5039730;28;20128;-65
2023/11/27 02:04:26;;;;;;;10.10;4.28;;;;;;;0.62;100.00;96799.88;5036800;28;20127;-65
2023/11/27 02:06:53;;;;;;;8.13;3.90;;;;;;;0.72;100.00;96801.34;5044512;28;20029;-65
2023/11/27 02:09:20;;;;;;;7.20;3.65;;;;;;;0.74;100.00;96792.09;5034332;28;20049;-65
2023/11/27 02:11:49;;;;;;;5.72;3.15;;;;;;;0.75;100.00;96790.28;5037667;28;20041;-65
2023/11/27 02:14:18;;;;;;;7.85;3.45;;;;;;;0.75;100.00;96784.94;5033952;28;20478;-65
2023/11/27 02:16:46;;;;;;;8.68;3.60;;;;;;;0.69;100.00;96783.91;5043799;28;20037;-65
2023/11/27 02:19:13;;;;;;;6.82;3.35;;;;;;;0.69;100.00;96781.25;5053314;28;20041;-65
2023/11/27 02:21:41;;;;;;;7.70;4.22;;;;;;;0.61;100.00;96782.28;5044350;28;20041;-65
2023/11/27 02:24:08;;;;;;;6.60;3.45;;;;;;;0.58;100.00;96788.00;5044402;28;20045;-65
2023/11/27 02:26:34;;;;;;;8.60;4.25;;;;;;;0.60;100.00;96777.97;5033090;28;20048;-65
2023/11/27 02:29:01;;;;;;;6.70;3.17;;;;;;;0.66;100.00;96775.50;5043777;28;20072;-65
2023/11/27 02:31:28;;;;;;;6.45;3.55;;;;;;;0.65;100.00;96769.34;5040032;28;20102;-65
2023/11/27 02:33:56;;;;;;;6.53;3.78;;;;;;;0.58;100.00;96771.19;5035837;28;20162;-65
2023/11/27 02:36:25;;;;;;;6.05;3.30;;;;;;;0.64;100.00;96765.06;5050230;28;20568;-65
2023/11/27 02:38:52;;;;;;;6.93;3.42;;;;;;;0.77;100.00;96761.56;5032576;28;20522;-65
2023/11/27 02:41:19;;;;;;;5.13;3.10;;;;;;;0.81;100.00;96767.31;5034846;28;20520;-64
2023/11/27 02:43:46;;;;;;;6.82;3.63;;;;;;;0.93;100.00;96770.19;5049832;28;20044;-65
2023/11/27 02:46:13;;;;;;;5.55;3.30;;;;;;;0.93;100.00;96763.03;5043261;28;20056;-65
2023/11/27 02:48:39;;;;;;;6.13;3.40;;;;;;;0.88;100.00;96755.63;5044627;28;20552;-65
2023/11/27 02:51:06;;;;;;;5.40;2.85;;;;;;;0.85;100.00;96749.91;5041680;28;20120;-65
2023/11/27 02:53:33;;;;;;;7.00;3.35;;;;;;;0.86;100.00;96747.03;5045560;28;20049;-65
2023/11/27 02:55:59;;;;;;;5.57;3.08;;;;;;;0.87;100.00;96743.34;5044716;28;20044;-65
2023/11/27 02:58:26;;;;;;;6.97;3.58;;;;;;;0.84;100.00;96742.91;5047184;28;20116;-65
2023/11/27 03:00:52;;;;;;;6.40;3.10;;;;;;;0.64;100.00;96733.91;5041752;28;20045;-65
2023/11/27 03:03:19;;;;;;;7.68;3.00;;;;;;;0.74;100.00;96738.00;5049965;28;20652;-65
2023/11/27 03:05:46;;;;;;;4.63;2.90;;;;;;;0.71;100.00;96733.91;5044993;28;20048;-64
2023/11/27 03:08:12;;;;;;;6.10;3.15;;;;;;;0.66;100.00;96728.34;5042169;28;20041;-65
2023/11/27 03:10:39;;;;;;;5.70;3.40;;;;;;;0.80;100.00;96726.50;5039345;28;20520;-64
2023/11/27 03:13:05;;;;;;;6.82;3.47;;;;;;;0.64;100.00;96725.09;5043146;28;20559;-64
2023/11/27 03:15:33;;;;;;;8.73;3.33;;;;;;;0.55;100.00;96724.44;5034158;28;20044;-65
2023/11/27 03:18:00;;;;;;;8.18;3.20;;;;;;;0.37;100.00;96728.53;5052698;28;20044;-65
2023/11/27 03:20:27;;;;;;;5.57;3.53;;;;;;;0.48;100.00;96718.31;5049430;28;20056;-65
2023/11/27 03:22:53;;;;;;;7.85;3.50;;;;;;;0.58;100.00;96726.72;5041539;28;20036;-65
2023/11/27 03:25:21;;;;;;;6.68;3.28;;;;;;;0.67;100.00;96715.88;5045275;28;20559;-65
2023/11/27 03:27:47;;;;;;;6.20;3.28;;;;;;;0.80;100.00;96723.84;5038944;28;20037;-65
2023/11/27 03:30:14;;;;;;;6.30;3.10;;;;;;;0.68;100.00;96715.66;5053462;28;20041;-65
2023/11/27 03:32:40;;;;;;;7.47;3.63;;;;;;;0.73;100.00;96699.88;5055112;28;20041;-65
2023/11/27 03:35:08;;;;;;;7.40;3.40;;;;;;;0.74;100.00;96708.69;5046560;28;20116;-65
2023/11/27 03:37:35;;;;;;;5.35;2.97;;;;;;;0.63;100.00;96699.47;5043940;28;20041;-65
2023/11/27 03:40:03;;;;;;;5.75;3.40;;;;;;;0.62;100.00;96701.31;5054120;28;20040;-65
2023/11/27 03:42:30;;;;;;;7.97;3.58;;;;;;;0.63;100.00;96699.47;5042706;28;20045;-65
2023/11/27 03:44:56;;;;;;;5.55;3.13;;;;;;;0.64;100.00;96699.28;5048325;28;20047;-65
2023/11/27 03:47:23;;;;;;;6.38;3.38;;;;;;;0.60;100.00;96698.03;5038830;28;20091;-64
2023/11/27 03:49:50;;;;;;;8.10;3.63;;;;;;;0.60;100.00;96697.22;5044158;28;20081;-64
2023/11/27 03:52:16;;;;;;;6.90;3.83;;;;;;;0.50;100.00;96690.44;5044044;28;20064;-64
2023/11/27 03:54:43;;;;;;;5.95;3.33;;;;;;;0.27;100.00;96690.84;5047739;28;20523;-65
2023/11/27 03:57:10;;;;;;;6.72;4.00;;;;;;;0.11;100.00;96682.19;5053227;28;20115;-64
2023/11/27 03:59:36;;;;;;;6.93;3.97;;;;;;;0.05;100.00;96682.19;5046772;28;20040;-64
2023/11/27 04:02:03;;;;;;;8.52;4.32;;;;;;;0.11;100.00;96679.53;5044433;28;20056;-65
2023/11/27 04:04:29;;;;;;;5.60;3.30;;;;;;;0.27;100.00;96680.19;5039603;28;20041;-64
2023/11/27 04:06:56;;;;;;;7.80;4.13;;;;;;;0.37;100.00;96675.25;5048453;28;20036;-64
2023/11/27 04:09:23;;;;;;;6.75;3.80;;;;;;;0.36;100.00;96678.13;5062060;28;20127;-65
2023/11/27 04:11:50;;;;;;;6.65;3.72;;;;;;;0.31;100.00;96675.25;5048646;28;20053;-65
2023/11/27 04:14:18;;;;;;;7.68;3.90;;;;;;;0.30;100.00;96673.63;5055525;28;20044;-65
2023/11/27 04:16:44;;;;;;;5.95;3.22;;;;;;;0.33;100.00;96674.03;5040746;28;20039;-65
2023/11/27 04:19:11;;;;;;;7.68;3.72;;;;;;;0.45;100.00;96668.94;5040308;28;20052;-65
2023/11/27 04:21:38;;;;;;;6.97;3.10;;;;;;;0.41;100.00;96670.38;5052235;28;20043;-65
2023/11/27 04:24:05;;;;;;;5.68;3.30;;;;;;;0.37;100.00;96669.13;5048009;28;20060;-65
2023/11/27 04:26:32;;;;;;;6.13;3.42;;;;;;;0.37;100.00;96659.28;5054021;28;20055;-65
2023/11/27 04:28:59;;;;;;;6.20;3.50;;;;;;;0.31;100.00;96664.59;5041972;28;20040;-65
2023/11/27 04:31:26;;;;;;;7.38;3.50;;;;;;;0.19;100.00;96664.41;5040540;28;20040;-65
2023/11/27 04:33:52;;;;;;;6.60;3.85;;;;;;;0.22;100.00;96654.16;5049729;28;20041;-65
2023/11/27 04:36:19;;;;;;;6.28;3.78;;;;;;;0.28;100.00;96652.53;5048773;28;20128;-64
2023/11/27 04:38:46;;;;;;;5.60;3.58;;;;;;;0.31;100.00;96646.81;5043652;28;20037;-64
2023/11/27 04:41:12;;;;;;;6.63;3.55;;;;;;;0.30;100.00;96641.69;5044248;28;20066;-65
2023/11/27 04:43:39;;;;;;;6.57;3.72;;;;;;;0.26;100.00;96635.94;5036854;28;20052;-66
2023/11/27 04:46:09;;;;;;;5.72;3.13;;;;;;;0.39;100.00;96643.09;5042484;28;20105;-65
2023/11/27 04:48:36;;;;;;;7.28;3.92;;;;;;;0.41;100.00;96632.25;5054054;28;20049;-65
2023/11/27 04:51:03;;;;;;;5.80;3.55;;;;;;;0.49;100.00;96632.88;5049659;28;20036;-65
2023/11/27 04:53:29;;;;;;;9.90;4.22;;;;;;;0.60;100.00;96636.75;5054506;28;20047;-65
2023/11/27 04:55:56;;;;;;;6.95;3.47;;;;;;;0.33;100.00;96627.97;5051412;28;20045;-65
2023/11/27 04:58:24;;;;;;;6.65;3.70;;;;;;;0.08;100.00;96623.22;5051761;28;20032;-64
2023/11/27 05:00:51;;;;;;;8.95;4.15;;;;;;;0.04;100.00;96625.47;5052426;28;20470;-65
2023/11/27 05:03:20;;;;;;;6.07;3.88;;;;;;;0.18;100.00;96622.84;5046900;28;20071;-65
2023/11/27 05:05:46;;;;;;;6.60;3.60;;;;;;;0.21;100.00;96619.75;5039265;28;20126;-64
2023/11/27 05:08:14;;;;;;;5.25;3.03;;;;;;;0.12;100.00;96611.94;5044204;28;20083;-65
2023/11/27 05:10:41;;;;;;;7.53;3.83;;;;;;;0.19;100.00;96608.50;5053140;28;20602;-65
2023/11/27 05:13:07;;;;;;;6.70;3.30;;;;;;;0.13;100.00;96607.47;5051062;28;20040;-65
2023/11/27 05:15:34;;;;;;;7.78;3.83;;;;;;;0.02;100.00;96598.25;5044589;28;20552;-65
2023/11/27 05:18:03;;;;;;;6.43;3.38;;;;;;;-0.02;100.00;96594.34;5047994;28;20443;-65
2023/11/27 05:20:30;;;;;;;7.68;3.78;;;;;;;-0.01;100.00;96593.31;5048338;28;20041;-65
2023/11/27 05:22:56;;;;;;;10.50;4.40;;;;;;;0.07;100.00;96587.78;5043608;28;20448;-65
2023/11/27 05:25:23;;;;;;;9.52;4.57;;;;;;;0.19;100.00;96588.00;5048651;28;20051;-65
2023/11/27 05:27:50;;;;;;;7.68;4.05;;;;;;;0.17;100.00;96583.91;5033024;28;20041;-65
2023/11/27 05:30:16;;;;;;;12.30;4.40;;;;;;;0.12;100.00;96581.88;5054723;28;20067;-65
2023/11/27 05:32:43;;;;;;;7.22;3.50;;;;;;;0.09;100.00;96580.44;5039469;28;20041;-64
2023/11/27 05:35:09;;;;;;;7.00;3.97;;;;;;;0.19;100.00;96587.19;5045845;28;20040;-65
2023/11/27 05:37:36;;;;;;;6.47;4.15;;;;;;;0.21;100.00;96585.13;5042915;28;20064;-65
2023/11/27 05:40:06;;;;;;;8.73;4.95;;;;;;;0.29;100.00;96584.13;5045611;28;20037;-65
2023/11/27 05:42:39;;;;;;;9.75;4.75;;;;;;;0.06;100.00;96580.84;5043298;28;20045;-65
2023/11/27 05:45:10;;;;;;;7.95;4.35;;;;;;;0.00;100.00;96576.34;5044641;28;20048;-65
2023/11/27 05:47:39;;;;;;;8.13;4.90;;;;;;;0.09;100.00;96580.44;5044084;28;20504;-65
2023/11/27 05:50:09;;;;;;;8.05;5.03;;;;;;;-0.05;100.00;96574.28;5039037;28;20040;-65
2023/11/27 05:52:36;;;;;;;6.95;4.15;;;;;;;0.07;100.00;96573.69;5047526;28;20064;-64
2023/11/27 05:55:03;;;;;;;8.18;4.30;;;;;;;0.24;100.00;96574.06;5044223;28;20037;-64
2023/11/27 05:57:30;;;;;;;7.28;4.40;;;;;;;0.14;100.00;96563.03;5042988;28;20041;-65
2023/11/27 05:59:56;;;;;;;7.88;4.53;;;;;;;0.00;100.00;96557.72;5038605;28;20045;-64
2023/11/27 06:02:23;;;;;;;8.15;4.53;;;;;;;0.14;100.00;96555.84;5039330;28;20044;-64
2023/11/27 06:04:50;;;;;;;8.95;4.22;;;;;;;0.18;100.00;96557.06;5044869;28;20641;-64
2023/11/27 06:07:16;;;;;;;8.23;3.97;;;;;;;0.25;100.00;96552.56;5043527;28;20040;-64
2023/11/27 06:09:44;;;;;;;8.13;3.63;;;;;;;0.25;100.00;96551.75;5039135;28;20047;-64
2023/11/27 06:12:11;;;;;;;7.03;3.72;;;;;;;0.29;100.00;96549.50;5029144;28;20580;-65
2023/11/27 06:14:39;;;;;;;8.85;3.33;;;;;;;0.40;100.00;96540.88;5029050;28;20109;-65
2023/11/27 06:17:06;;;;;;;7.07;3.67;;;;;;;0.51;100.00;96544.75;5035027;28;20044;-65
2023/11/27 06:19:33;;;;;;;8.00;3.60;;;;;;;0.46;100.00;96537.38;5041753;28;20545;-64
2023/11/27 06:22:00;;;;;;;6.60;3.42;;;;;;;0.54;100.00;96535.50;5044017;28;20085;-65
2023/11/27 06:24:28;;;;;;;9.50;3.78;;;;;;;0.48;100.00;96537.19;5041091;28;20107;-64
2023/11/27 06:26:55;;;;;;;9.05;3.30;;;;;;;0.46;100.00;96539.22;5038089;28;20065;-64
2023/11/27 06:29:22;;;;;;;7.88;3.38;;;;;;;0.50;100.00;96529.78;5037716;28;20033;-65
2023/11/27 06:31:48;;;;;;;7.88;3.92;;;;;;;0.47;100.00;96525.69;5039224;28;20041;-64
2023/11/27 06:34:16;;;;;;;7.18;3.72;;;;;;;0.22;100.00;96525.56;5028690;28;20045;-65
2023/11/27 06:36:43;;;;;;;6.85;3.72;;;;;;;0.02;100.00;96522.88;5033552;28;20111;-65
2023/11/27 06:39:10;;;;;;;11.15;3.88;;;;;;;-0.10;100.00;96525.34;5036774;28;20064;-65
2023/11/27 06:41:37;;;;;;;6.55;3.55;;;;;;;-0.14;100.00;96524.94;5034792;28;20045;-65
2023/11/27 06:44:03;;;;;;;7.00;4.28;;;;;;;-0.17;100.00;96528.00;5040704;28;20486;-65
2023/11/27 06:46:30;;;;;;;8.95;4.05;;;;;;;-0.15;100.00;96525.94;5038229;28;20045;-65
2023/11/27 06:48:56;;;;;;;7.68;3.88;;;;;;;0.06;100.00;96524.94;5040350;28;20115;-65
2023/11/27 06:51:23;;;;;;;6.57;3.53;;;;;;;0.10;100.00;96515.50;5033985;28;20071;-64
2023/11/27 06:53:49;;;;;;;6.93;3.33;;;;;;;0.19;100.00;96515.31;5041182;28;20072;-64
2023/11/27 06:56:16;;;;;;;5.90;3.35;;;;;;;0.15;100.00;96511.41;5037091;28;20111;-64
2023/11/27 06:58:43;;;;;;;7.13;2.97;;;;;;;0.17;100.00;96504.03;5040601;28;20602;-64
2023/11/27 07:01:11;;;;;;;5.70;3.00;;;;;;;0.20;100.00;96506.28;5032836;28;20034;-64
2023/11/27 07:03:38;;;;;;;7.28;2.97;;;;;;;0.25;100.00;96499.31;5038567;28;20044;-64
2023/11/27 07:06:05;;;;;;;6.13;2.63;;;;;;;0.35;100.00;96506.88;5037473;28;20064;-64
2023/11/27 07:08:34;;;;;;;5.72;2.63;;;;;;;0.33;100.00;96490.28;5040410;28;20558;-64
2023/11/27 07:11:02;;;;;;;5.43;3.03;;;;;;;0.32;100.00;96488.66;5032876;28;20504;-64
2023/11/27 07:13:29;;;;;;;4.40;2.97;;;;;;;0.34;100.00;96489.25;5035386;28;20059;-64
2023/11/27 07:15:56;;;;;;;6.53;2.88;;;;;;;0.35;100.00;96487.41;5031654;28;20126;-64
2023/11/27 07:18:23;;;;;;;5.68;2.90;;;;;;;0.51;100.00;96484.31;5042799;28;20041;-64
2023/11/27 07:20:57;;;;;;;4.47;2.55;;;;;;;0.41;100.00;96483.94;5031990;28;20598;-64
2023/11/27 07:23:26;;;;;;;5.65;2.88;;;;;;;0.47;100.00;96467.09;5034224;28;20045;-64
2023/11/27 07:25:53;;;;;;;6.75;3.30;;;;;;;0.54;100.00;96461.75;5035617;28;20068;-64
2023/11/27 07:28:20;;;;;;;9.88;3.72;;;;;;;0.44;100.00;96456.06;5034485;28;20047;-64
2023/11/27 07:30:46;;;;;;;7.68;3.15;;;;;;;0.45;100.00;96453.19;5033875;28;20053;-64
2023/11/27 07:33:14;;;;;;;5.75;3.22;;;;;;;0.43;100.00;96451.75;5034990;28;20088;-64
2023/11/27 07:35:40;;;;;;;5.22;2.88;;;;;;;0.45;100.00;96441.72;5041694;28;20038;-64
2023/11/27 07:38:07;;;;;;;5.93;3.00;;;;;;;0.51;100.00;96444.34;5041280;28;20041;-64
2023/11/27 07:40:34;;;;;;;5.85;2.55;;;;;;;0.65;100.00;96436.28;5043828;28;20116;-64
2023/11/27 07:43:00;;;;;;;6.18;2.45;;;;;;;0.66;100.00;96437.94;5042677;28;20090;-65
2023/11/27 07:45:29;;;;;;;8.02;2.80;;;;;;;0.71;100.00;96430.13;5036141;28;20049;-64
2023/11/27 07:47:56;;;;;;;5.63;3.45;;;;;;;0.68;100.00;96425.22;5041617;28;20120;-64
2023/11/27 07:50:23;;;;;;;6.25;3.25;;;;;;;0.69;100.00;96421.53;5047629;28;20045;-64
2023/11/27 07:52:49;;;;;;;4.25;2.30;;;;;;;0.77;100.00;96423.13;5042349;28;20048;-64
2023/11/27 07:55:16;;;;;;;4.40;2.45;;;;;;;0.79;100.00;96421.06;5033455;28;20116;-64
2023/11/27 07:57:43;;;;;;;5.10;3.10;;;;;;;0.79;100.00;96421.06;5040848;28;20057;-64
2023/11/27 08:00:14;;;;;;;4.15;2.47;;;;;;;0.81;100.00;96412.88;5041832;28;20070;-64
2023/11/27 08:02:43;;;;;;;4.35;2.35;;;;;;;0.88;100.00;96413.63;5041422;28;20692;-64
2023/11/27 08:05:10;;;;;;;3.80;2.20;;;;;;;0.88;100.00;96414.47;5040832;28;20040;-65
2023/11/27 08:07:37;;;;;;;5.00;2.25;;;;;;;0.84;100.00;96412.41;5040880;28;20666;-65
2023/11/27 08:10:04;;;;;;;4.55;2.10;;;;;;;0.96;100.00;96412.59;5036120;28;20043;-64
2023/11/27 08:12:30;;;;;;;6.35;3.15;;;;;;;0.94;100.00;96406.63;5045814;28;20049;-64
2023/11/27 08:14:57;;;;;;;4.18;2.22;;;;;;;0.90;100.00;96409.75;5036117;28;20045;-64
2023/11/27 08:17:26;;;;;;;6.88;2.05;;;;;;;0.89;100.00;96402.75;5043447;28;20041;-64
2023/11/27 08:19:53;;;;;;;8.60;2.40;;;;;;;0.98;100.00;96403.34;5045658;28;20040;-64
2023/11/27 08:22:19;;;;;;;7.75;2.60;;;;;;;1.00;100.00;96397.78;5036236;28;20045;-64
2023/11/27 08:24:47;;;;;;;8.52;3.80;;;;;;;1.05;100.00;96395.28;5040139;28;20052;-64
2023/11/27 08:27:14;;;;;;;24.23;11.00;;;;;;;1.01;100.00;96391.41;5041052;28;20045;-64
2023/11/27 08:29:40;;;;;;;8.38;3.75;;;;;;;1.06;100.00;96386.25;5036369;28;20476;-64
2023/11/27 08:32:07;;;;;;;4.78;2.53;;;;;;;1.13;100.00;96396.88;5033303;28;20566;-64
2023/11/27 08:34:34;;;;;;;10.05;3.08;;;;;;;1.23;100.00;96383.91;5035328;28;20088;-64
2023/11/27 08:37:05;;;;;;;4.65;2.25;;;;;;;1.35;100.00;96384.00;5036439;28;20049;-64
2023/11/27 08:39:32;;;;;;;4.95;2.35;;;;;;;1.23;100.00;96377.72;5042252;28;20041;-64
2023/11/27 08:41:59;;;;;;;9.13;3.88;;;;;;;1.24;100.00;96374.03;5035558;28;20693;-65
2023/11/27 08:44:25;;;;;;;7.05;2.75;;;;;;;1.24;100.00;96366.03;5037571;28;20546;-64
2023/11/27 08:46:52;;;;;;;3.03;1.50;;;;;;;1.39;100.00;96366.53;5039639;28;20045;-64
2023/11/27 08:49:18;;;;;;;4.75;2.30;;;;;;;1.43;100.00;96364.22;5037827;28;20037;-64
2023/11/27 08:51:45;;;;;;;2.60;1.40;;;;;;;1.60;100.00;96363.69;5037968;28;20045;-64
2023/11/27 08:54:12;;;;;;;4.85;1.77;;;;;;;1.68;100.00;96358.91;5038085;28;20048;-64
2023/11/27 08:56:41;;;;;;;5.72;2.42;;;;;;;1.63;100.00;96353.41;5037635;28;20052;-64
2023/11/27 08:59:08;;;;;;;2.95;1.60;;;;;;;1.68;100.00;96350.88;5042478;28;20048;-64
2023/11/27 09:01:35;;;;;;;4.22;1.50;;;;;;;1.88;100.00;96333.03;5047756;28;20053;-64
2023/11/27 09:04:03;;;;;;;4.10;1.70;;;;;;;1.88;100.00;96333.84;5038730;28;20452;-64
2023/11/27 09:06:30;;;;;;;10.38;4.80;;;;;;;1.81;100.00;96328.56;5037791;28;20076;-64
2023/11/27 09:08:56;;;;;;;2.90;1.40;;;;;;;1.90;100.00;96329.09;5037382;28;20049;-64
2023/11/27 09:11:23;;;;;;;10.23;3.78;;;;;;;1.89;100.00;96319.47;5030588;28;20044;-64
2023/11/27 09:13:52;;;;;;;4.72;1.15;;;;;;;1.94;100.00;96311.59;5037255;28;20033;-65
2023/11/27 09:16:19;;;;;;;5.85;2.65;;;;;;;1.95;100.00;96315.06;5035560;28;20037;-65
2023/11/27 09:18:46;;;;;;;2.78;1.17;;;;;;;2.02;100.00;96307.81;5035386;28;20114;-65
2023/11/27 09:21:12;;;;;;;3.17;1.98;;;;;;;2.13;100.00;96305.44;5035985;28;20060;-65
2023/11/27 09:23:39;;;;;;;2.92;1.67;;;;;;;2.17;100.00;96306.59;5033941;28;20301;-64
2023/11/27 09:26:06;;;;;;;3.40;1.60;;;;;;;2.15;100.00;96309.53;5038742;28;20793;-64
2023/11/27 09:28:32;;;;;;;3.85;1.35;;;;;;;2.14;100.00;96307.88;5040302;28;20052;-64
2023/11/27 09:31:01;;;;;;;2.35;1.25;;;;;;;2.10;100.00;96306.69;5034229;28;20032;-64
2023/11/27 09:33:28;;;;;;;3.63;1.52;;;;;;;2.17;100.00;96302.09;5034604;28;20764;-65
2023/11/27 09:35:54;;;;;;;4.13;1.45;;;;;;;2.16;100.00;96303.13;5037199;28;20123;-65
2023/11/27 09:38:21;;;;;;;2.85;1.67;;;;;;;2.14;100.00;96294.50;5034519;28;20056;-64
2023/11/27 09:40:48;;;;;;;4.70;2.47;;;;;;;2.10;100.00;96288.00;5038217;28;20063;-65
2023/11/27 09:43:14;;;;;;;8.93;2.00;;;;;;;2.11;100.00;96276.28;5026898;28;20540;-64
2023/11/27 09:45:41;;;;;;;3.50;1.05;;;;;;;2.25;100.00;96276.13;5035238;28;20056;-65
2023/11/27 09:48:10;;;;;;;2.15;0.82;;;;;;;2.31;100.00;96268.00;5040492;28;20048;-65
2023/11/27 09:50:39;;;;;;;4.20;1.52;;;;;;;2.28;100.00;96270.34;5037343;28;20048;-65
2023/11/27 09:53:07;;;;;;;4.70;1.50;;;;;;;2.35;100.00;96260.34;5037208;28;20107;-65
2023/11/27 09:55:35;;;;;;;2.08;0.90;;;;;;;2.44;100.00;96261.66;5038443;28;20073;-64
2023/11/27 09:58:05;;;;;;;3.80;1.25;;;;;;;2.42;100.00;96246.91;5033869;28;20114;-64
2023/11/27 10:00:32;;;;;;;4.22;1.85;;;;;;;2.40;100.00;96244.44;5030449;28;20044;-64
2023/11/27 10:02:58;;;;;;;2.65;1.10;;;;;;;2.45;100.00;96239.25;5039189;28;20041;-65
2023/11/27 10:05:26;;;;;;;4.28;1.40;;;;;;;2.52;100.00;96233.81;5037660;28;20080;-65
2023/11/27 10:07:54;;;;;;;4.03;1.27;;;;;;;2.63;100.00;96218.03;5027688;28;20045;-64
2023/11/27 10:10:26;;;;;;;3.15;1.10;;;;;;;2.68;100.00;96224.31;5035512;28;20128;-64
2023/11/27 10:12:58;;;;;;;4.60;1.35;;;;;;;2.64;100.00;96214.31;5036954;28;20132;-64
2023/11/27 10:15:27;;;;;;;5.47;1.70;;;;;;;2.62;100.00;96198.53;5037711;28;20717;-64
2023/11/27 10:17:59;;;;;;;3.03;1.13;;;;;;;2.75;100.00;96196.66;5034426;28;20099;-65
2023/11/27 10:20:30;;;;;;;1.83;1.02;;;;;;;2.66;100.00;96189.00;5035834;28;20524;-64
2023/11/27 10:22:58;;;;;;;4.28;1.08;;;;;;;2.64;100.00;96182.22;5029244;28;20041;-65
2023/11/27 10:25:24;;;;;;;2.20;0.88;;;;;;;2.74;100.00;96174.47;5033683;28;20048;-65
2023/11/27 10:27:57;;;;;;;6.82;1.23;;;;;;;2.76;100.00;96167.03;5035810;28;20041;-64
2023/11/27 10:30:27;;;;;;;3.30;0.82;;;;;;;2.81;100.00;96144.94;5030366;28;20056;-63
2023/11/27 10:32:54;;;;;;;2.55;0.80;;;;;;;2.84;100.00;96147.97;5038835;28;20041;-63
2023/11/27 10:35:23;;;;;;;1.45;0.80;;;;;;;2.98;100.00;96137.84;5036042;28;20045;-63
2023/11/27 10:37:49;;;;;;;2.45;1.20;;;;;;;2.96;100.00;96131.13;5035936;28;20090;-64
2023/11/27 10:40:18;;;;;;;1.35;0.80;;;;;;;2.98;100.00;96135.19;5038914;28;20064;-63
2023/11/27 10:42:47;;;;;;;2.10;1.00;;;;;;;3.06;100.00;96119.84;5042767;28;20044;-63
2023/11/27 10:45:19;;;;;;;2.35;0.85;;;;;;;3.10;100.00;96102.28;5031372;28;20069;-63
2023/11/27 10:47:53;;;;;;;2.67;1.10;;;;;;;3.18;98.53;96099.22;5042795;28;20044;-62
2023/11/27 10:50:22;;;;;;;2.72;1.08;;;;;;;3.27;97.24;96083.59;5039946;28;20041;-63
2023/11/27 10:52:50;;;;;;;2.78;1.10;;;;;;;3.32;98.09;96083.69;5031753;28;20049;-63
2023/11/27 10:55:18;;;;;;;2.25;1.13;;;;;;;3.47;95.57;96082.41;5044622;28;20749;-63
2023/11/27 10:57:50;;;;;;;5.60;2.47;;;;;;;3.45;95.72;96076.44;5037655;28;20054;-64
2023/11/27 11:00:38;;;;;;;4.55;2.00;;;;;;;3.47;95.60;96067.13;5044508;28;20614;-63
2023/11/27 11:03:14;;;;;;;3.65;1.73;;;;;;;3.53;94.19;96064.56;5045075;28;20474;-64
2023/11/27 11:05:53;;;;;;;3.30;1.85;;;;;;;3.69;95.40;96054.97;5037283;28;20111;-63
2023/11/27 11:08:23;;;;;;;3.10;1.17;;;;;;;3.71;94.56;96048.31;5041087;28;20049;-64
2023/11/27 11:10:53;;;;;;;5.15;2.90;;;;;;;3.61;92.02;96045.47;5040035;28;20069;-63
2023/11/27 11:13:21;;;;;;;5.65;2.67;;;;;;;3.48;93.46;96039.34;5042331;28;20044;-63
2023/11/27 11:16:14;;;;;;;6.88;2.13;;;;;;;3.61;93.94;96026.72;5046345;28;20567;-63
2023/11/27 11:18:52;;;;;;;7.07;4.38;;;;;;;3.50;93.55;96017.66;5033503;28;20076;-63
2023/11/27 11:21:21;;;;;;;5.70;2.60;;;;;;;3.60;94.08;96009.84;5031616;28;20048;-63
2023/11/27 11:24:26;;;;;;;6.28;2.30;;;;;;;3.55;94.32;96011.59;5031288;28;20041;-62
2023/11/27 11:27:31;;;;;;;6.45;3.00;;;;;;;3.47;92.63;95997.56;5023249;28;20048;-63
2023/11/27 11:29:58;;;;;;;5.15;3.13;;;;;;;3.54;92.81;95986.69;5022429;28;20107;-63
2023/11/27 11:32:28;;;;;;;4.80;1.65;;;;;;;3.57;93.73;95980.88;5037072;28;20037;-63
2023/11/27 11:34:59;;;;;;;4.28;0.88;;;;;;;3.59;94.25;95984.13;5026821;28;20049;-63